地図

経路データ

SID SEASON NUMBER BASIN SUBBASIN NAME ISO_TIME NATURE LAT LON WMO_WIND WMO_PRES WMO_AGENCY TRACK_TYPE DIST2LAND LANDFALL IFLAG USA_AGENCY USA_ATCF_ID USA_LAT USA_LON USA_RECORD USA_STATUS USA_WIND USA_PRES USA_SSHS USA_R34_NE USA_R34_SE USA_R34_SW USA_R34_NW USA_R50_NE USA_R50_SE USA_R50_SW USA_R50_NW USA_R64_NE USA_R64_SE USA_R64_SW USA_R64_NW USA_POCI USA_ROCI USA_RMW USA_EYE TOKYO_LAT TOKYO_LON TOKYO_GRADE TOKYO_WIND TOKYO_PRES TOKYO_R50_DIR TOKYO_R50_LONG TOKYO_R50_SHORT TOKYO_R30_DIR TOKYO_R30_LONG TOKYO_R30_SHORT TOKYO_LAND CMA_LAT CMA_LON CMA_CAT CMA_WIND CMA_PRES HKO_LAT HKO_LON HKO_CAT HKO_WIND HKO_PRES NEWDELHI_LAT NEWDELHI_LON NEWDELHI_GRADE NEWDELHI_WIND NEWDELHI_PRES NEWDELHI_CI NEWDELHI_DP NEWDELHI_POCI REUNION_LAT REUNION_LON REUNION_TYPE REUNION_WIND REUNION_PRES REUNION_TNUM REUNION_CI REUNION_RMW REUNION_R34_NE REUNION_R34_SE REUNION_R34_SW REUNION_R34_NW REUNION_R50_NE REUNION_R50_SE REUNION_R50_SW REUNION_R50_NW REUNION_R64_NE REUNION_R64_SE REUNION_R64_SW REUNION_R64_NW BOM_LAT BOM_LON BOM_TYPE BOM_WIND BOM_PRES BOM_TNUM BOM_CI BOM_RMW BOM_R34_NE BOM_R34_SE BOM_R34_SW BOM_R34_NW BOM_R50_NE BOM_R50_SE BOM_R50_SW BOM_R50_NW BOM_R64_NE BOM_R64_SE BOM_R64_SW BOM_R64_NW BOM_ROCI BOM_POCI BOM_EYE BOM_POS_METHOD BOM_PRES_METHOD NADI_LAT NADI_LON NADI_CAT NADI_WIND NADI_PRES WELLINGTON_LAT WELLINGTON_LON WELLINGTON_WIND WELLINGTON_PRES DS824_LAT DS824_LON DS824_STAGE DS824_WIND DS824_PRES TD9636_LAT TD9636_LON TD9636_STAGE TD9636_WIND TD9636_PRES TD9635_LAT TD9635_LON TD9635_WIND TD9635_PRES TD9635_ROCI NEUMANN_LAT NEUMANN_LON NEUMANN_CLASS NEUMANN_WIND NEUMANN_PRES MLC_LAT MLC_LON MLC_CLASS MLC_WIND MLC_PRES USA_GUST BOM_GUST BOM_GUST_PER REUNION_GUST REUNION_GUST_PER USA_SEAHGT USA_SEARAD_NE USA_SEARAD_SE USA_SEARAD_SW USA_SEARAD_NW STORM_SPEED STORM_DIR
1908117S14124 1908 17 SI WA NOT_NAMED 1908-04-25 12:00:00 NR -13.6000 124.300 main 148 132 __________O___ -1 -13.6000 124.300 7 4 0
1908117S14124 1908 17 SI WA NOT_NAMED 1908-04-25 15:00:00 NR -13.8141 124.275 main 132 118 __________P___ -1 -13.8141 124.275 7 5 187
1908117S14124 1908 17 SI WA NOT_NAMED 1908-04-25 18:00:00 NR -14.0526 124.240 main 121 112 __________P___ -1 -14.0526 124.240 7 5 190
1908117S14124 1908 17 SI WA NOT_NAMED 1908-04-25 21:00:00 NR -14.3398 124.185 main 112 93 __________P___ -1 -14.3398 124.185 7 7 192
1908117S14124 1908 17 SI WA NOT_NAMED 1908-04-26 00:00:00 NR -14.7000 124.100 main 93 70 __________O___ -1 -14.7000 124.100 7 8 194
1908117S14124 1908 17 SI WA NOT_NAMED 1908-04-26 03:00:00 NR -15.1473 123.975 main 70 54 __________P___ -1 -15.1473 123.975 7 10 197
1908117S14124 1908 17 SI WA NOT_NAMED 1908-04-26 06:00:00 NR -15.6547 123.805 main 55 10 __________P___ -1 -15.6547 123.805 7 11 200
1908117S14124 1908 17 SI WA NOT_NAMED 1908-04-26 09:00:00 NR -16.1847 123.581 main 10 10 __________P___ -1 -16.1847 123.581 7 12 205
1908117S14124 1908 17 SI WA NOT_NAMED 1908-04-26 12:00:00 NR -16.7000 123.300 main 21 0 __________O___ -1 -16.7000 123.300 7 11 212
1908117S14124 1908 17 SI WA NOT_NAMED 1908-04-26 15:00:00 NR -17.1507 122.962 main 0 0 __________P___ -1 -17.1507 122.962 7 11 219
1908117S14124 1908 17 SI WA NOT_NAMED 1908-04-26 18:00:00 NR -17.5801 122.567 main 0 0 __________P___ -1 -17.5801 122.567 7 12 223
1908117S14124 1908 17 SI WA NOT_NAMED 1908-04-26 21:00:00 NR -17.9944 122.139 main 10 10 __________P___ -1 -17.9944 122.139 7 12 225
1908117S14124 1908 17 SI WA NOT_NAMED 1908-04-27 00:00:00 NR -18.4000 121.700 main 15 15 __________O___ -1 -18.4000 121.700 7 12 224
1908117S14124 1908 17 SI WA NOT_NAMED 1908-04-27 03:00:00 NR -18.8149 121.294 main 38 30 __________P___ -1 -18.8149 121.294 7 11 223
1908117S14124 1908 17 SI WA NOT_NAMED 1908-04-27 06:00:00 NR -19.2219 120.879 main 38 22 __________P___ -1 -19.2219 120.879 7 11 225
1908117S14124 1908 17 SI WA NOT_NAMED 1908-04-27 09:00:00 NR -19.6179 120.450 main 24 0 __________P___ -1 -19.6179 120.450 7 11 227
1908117S14124 1908 17 SI WA NOT_NAMED 1908-04-27 12:00:00 NR -20.0000 120.000 main 0 0 __________O___ -1 -20.0000 120.000 7 11 238
1908117S14124 1908 17 SI WA NOT_NAMED 1908-04-27 15:00:00 NR -20.2073 119.451 main 0 0 __________P___ -1 -20.2073 119.451 7 11 248
1908117S14124 1908 17 SI WA NOT_NAMED 1908-04-27 18:00:00 NR -20.4246 118.893 main 0 0 __________P___ -1 -20.4246 118.893 7 11 240
1908117S14124 1908 17 SI WA NOT_NAMED 1908-04-27 21:00:00 NR -20.7794 118.389 main 0 0 __________P___ -1 -20.7794 118.389 7 13 221
1908117S14124 1908 17 SI WA NOT_NAMED 1908-04-28 00:00:00 NR -21.4000 118.000 main 0 0 __________O___ -1 -21.4000 118.000 7 18 201
1908117S14124 1908 17 SI WA NOT_NAMED 1908-04-28 03:00:00 NR -22.4398 117.693 main 0 0 __________P___ -1 -22.4398 117.693 7 24 191
1908117S14124 1908 17 SI WA NOT_NAMED 1908-04-28 06:00:00 NR -23.7489 117.518 main 0 0 __________P___ -1 -23.7489 117.518 7 28 183
1908117S14124 1908 17 SI WA NOT_NAMED 1908-04-28 09:00:00 NR -25.2086 117.508 main 0 0 __________P___ -1 -25.2086 117.508 7 30 177
1908117S14124 1908 17 SI WA NOT_NAMED 1908-04-28 12:00:00 NR -26.7000 117.700 main 0 0 __________O___ -1 -26.7000 117.700 7 31 168
1908117S14124 1908 17 SI WA NOT_NAMED 1908-04-28 15:00:00 NR -28.1955 118.203 main 0 0 __________P___ -1 -28.1955 118.203 7 32 160
1908117S14124 1908 17 SI WA NOT_NAMED 1908-04-28 18:00:00 NR -29.6746 118.904 main 0 0 __________P___ -1 -29.6746 118.904 7 31 156
1908117S14124 1908 17 SI WA NOT_NAMED 1908-04-28 21:00:00 NR -31.0157 119.657 main 0 0 __________P___ -1 -31.0157 119.657 7 27 154
1908117S14124 1908 17 SI WA NOT_NAMED 1908-04-29 00:00:00 NR -32.1000 120.300 main 0 0 __________O___ -1 -32.1000 120.300 7 19 156
1908117S14124 1908 17 SI WA NOT_NAMED 1908-04-29 03:00:00 NR -32.7714 120.586 main 0 0 __________P___ -1 -32.7714 120.586 7 12 162
1908117S14124 1908 17 SI WA NOT_NAMED 1908-04-29 06:00:00 NR -33.1935 120.727 main 0 0 __________P___ -1 -33.1935 120.727 7 7 166
1908117S14124 1908 17 SI WA NOT_NAMED 1908-04-29 09:00:00 NR -33.4941 120.804 main 0 0 __________P___ -1 -33.4941 120.804 7 6 167
1908117S14124 1908 17 SI WA NOT_NAMED 1908-04-29 12:00:00 NR -33.8000 120.900 main 0 0 __________O___ -1 -33.8000 120.900 7 8 168
1908117S14124 1908 17 SI WA NOT_NAMED 1908-04-29 15:00:00 NR -34.3088 121.010 main 55 55 __________P___ -1 -34.3088 121.010 7 11 168
1908117S14124 1908 17 SI WA NOT_NAMED 1908-04-29 18:00:00 NR -34.8434 121.173 main 111 111 __________P___ -1 -34.8434 121.173 7 11 160
1908117S14124 1908 17 SI WA NOT_NAMED 1908-04-29 21:00:00 NR -35.3816 121.474 main 165 165 __________P___ -1 -35.3816 121.474 7 13 147
1908117S14124 1908 17 SI WA NOT_NAMED 1908-04-30 00:00:00 NR -35.9000 122.000 main 211 211 __________O___ -1 -35.9000 122.000 7 15 133
1908117S14124 1908 17 SI WA NOT_NAMED 1908-04-30 03:00:00 NR -36.3976 122.841 main 268 268 __________P___ -1 -36.3976 122.841 7 18 122
1908117S14124 1908 17 SI WA NOT_NAMED 1908-04-30 06:00:00 NR -36.8593 123.915 main 329 329 __________P___ -1 -36.8593 123.915 7 20 115
1908117S14124 1908 17 SI WA NOT_NAMED 1908-04-30 09:00:00 NR -37.2655 125.133 main 405 405 __________P___ -1 -37.2655 125.133 7 21 111
1908117S14124 1908 17 SI WA NOT_NAMED 1908-04-30 12:00:00 NR -37.6000 126.400 main 487 487 __________O___ -1 -37.6000 126.400 7 19 105
1908117S14124 1908 17 SI WA NOT_NAMED 1908-04-30 15:00:00 NR -37.7460 127.436 main 549 549 __________P___ -1 -37.7460 127.436 7 17 98
1908117S14124 1908 17 SI WA NOT_NAMED 1908-04-30 18:00:00 NR -37.8423 128.512 main 618 613 __________P___ -1 -37.8423 128.512 7 18 98
1908117S14124 1908 17 SI WA NOT_NAMED 1908-04-30 21:00:00 NR -37.9936 129.730 main 613 545 __________P___ -1 -37.9936 129.730 7 22 102
1908117S14124 1908 17 SI WA NOT_NAMED 1908-05-01 00:00:00 NR -38.3000 131.200 main 539 443 __________O___ -1 -38.3000 131.200 7 28 108
1908117S14124 1908 17 SI WA NOT_NAMED 1908-05-01 03:00:00 NR -38.8506 133.122 main 444 397 __________P___ -1 -38.8506 133.122 7 34 111
1908117S14124 1908 17 SP EA NOT_NAMED 1908-05-01 06:00:00 NR -39.5392 135.325 main 397 363 __________P___ -1 -39.5392 135.325 7 38 113
1908117S14124 1908 17 SP EA NOT_NAMED 1908-05-01 09:00:00 NR -40.3054 137.669 main 354 322 __________P___ -1 -40.3054 137.669 7 39 114
1908117S14124 1908 17 SP EA NOT_NAMED 1908-05-01 12:00:00 NR -41.1000 140.000 main 323 220 __________O___ -1 -41.1000 140.000 7 38 115
1908117S14124 1908 17 SP EA NOT_NAMED 1908-05-01 15:00:00 NR -41.8924 142.194 main 214 89 __________P___ -1 -41.8924 142.194 7 35 116
1908117S14124 1908 17 SP EA NOT_NAMED 1908-05-01 18:00:00 NR -42.6773 144.271 main 82 0 __________P___ -1 -42.6773 144.271 7 34 117
1908117S14124 1908 17 SP EA NOT_NAMED 1908-05-01 21:00:00 NR -43.4498 146.288 main 0 0 __________P___ -1 -43.4498 146.288 7 33 118
1908117S14124 1908 17 SP EA NOT_NAMED 1908-05-02 00:00:00 NR -44.2000 148.300 main 113 __________O___ -1 -44.2000 148.300 7 33 117

IBTrACS Databaseについて

本データベースは、米国NOAAが公開する1842年以降の世界の熱帯低気圧のベストトラックデータアーカイブInternational Best Track Archive for Climate Stewardship (IBTrACS)を、ウェブで閲覧しやすい形式に変換したものです。

最終更新日:2021-10-25